ULLIULPB

Guest
Details From ULLI - Saint Petersburg Pulkovo
To ULPB - Besovets
Flight Number -
Tags Generated
Created
Modified
Stats Distance 168 nm / 312 km
Max Altitude 0 ft / 0 m
Waypoints 2
Social Downloads 4
Likes 0
Share VATSIM

Download

Looking for another format? Having issues loading an existing format? Contact us
Advertisement - Login to hide

Notes

Generated

Route

ULLI ULPB

ID Type Via Altitude Latitude Longitude Leg Dist Tot Dist Heading (true) Name
O ULLI APT - 0 ft / 0 m 59.80973˚ 30.24537˚ - 0 nm - -
O ULPB APT - 0 ft / 0 m 61.87484˚ 34.14536˚ 168 nm 168 nm 41° / 44° -

Altitude Profile

Advertisement - Login to hide

Weather


0- 5 10 15 20 25 30 35+ Temperature / ° C

Clouds and Precipitation
Forecast for 2018-05-27 06:00 UTC. Updated 3 hours ago

Ground ~20,000 ft ~40,000 ft Winds

ULLI

Details ICAO ULLI (LED)
Name Saint Petersburg Pulkovo
Region Russia
Timezone Europe/Moscow (UTC+3.0)
Stats Elevation 78 ft / 24 m (AMSL)
Location 59.800292° 30.262504°
Runways 2
Magnetic Variation 10.763° E

METAR

ULLI 270830Z 30005MPS 270V330 CAVOK 20/07 Q1024 R88/090060 NOSIG

Decode

TAF

TAF TAF ULLI 270757Z 2709/2809 34005MPS 9999 SCT020 TEMPO 2712/2722 04003MPS BECMG 2722/2800 10003MPS BECMG 2808/2809 23003MPS

Decode

Departure Runways

ID Width Length Bearing (true) Bearing (mag) Surface Threshold Offset Overrun Length
10L 197 ft / 60 m 11,115 ft / 3,388 m 106.38° 95.62° Concrete 0 ft / 0 m 235 ft / 72 m
10R 197 ft / 60 m 12,365 ft / 3,769 m 106.40° 95.64° Concrete 0 ft / 0 m 220 ft / 67 m
28L 197 ft / 60 m 12,365 ft / 3,769 m 286.46° 275.70° Concrete 0 ft / 0 m 260 ft / 79 m
28R 197 ft / 60 m 11,115 ft / 3,388 m 286.44° 275.68° Concrete 0 ft / 0 m 240 ft / 73 m

ULPB

Details ICAO ULPB (PES)
Name BESOVETS
Region Russia
Timezone Europe/Moscow (UTC+3.0)
Stats Elevation 151 ft / 46 m (AMSL)
Location 61.885161° 34.154744°
Runways 1
Magnetic Variation 13.071° E

METAR

ULPB 270830Z 36006MPS CAVOK 16/M01 Q1023 R01/09//70 NOSIG RMK QFE763/1018

Decode

TAF

Not found

Destination Runways

ID Width Length Bearing (true) Bearing (mag) Surface Threshold Offset Overrun Length
02 157 ft / 48 m 8,192 ft / 2,497 m 23.19° 10.12° Concrete 0 ft / 0 m 0 ft / 0 m
20 157 ft / 48 m 8,192 ft / 2,497 m 203.21° 190.14° Concrete 0 ft / 0 m 0 ft / 0 m

Popular Alternatives